Time;durP1;ratioP1;P1;durP2;ratioP2;P2;SDS_P1;SDS_P2;PMS_P1;PMS_P2;Temp;Humidity;BMP_temperature;BMP_pressure;BME280_temperature;BME280_humidity;BME280_pressure;Samples;Min_cycle;Max_cycle;Signal;HPM_P1;HPM_P2
2022/08/02 00:01:46;;;;;;;0.28;0.10;;;;;;;20.20;100.00;99621.78;7397712;19;20066;-88
2022/08/02 00:04:12;;;;;;;0.10;0.10;;;;;;;20.20;100.00;99610.47;7393100;19;20029;-91
2022/08/02 00:06:39;;;;;;;1.38;0.30;;;;;;;20.18;100.00;99599.69;7394360;19;20014;-89
2022/08/02 00:09:05;;;;;;;0.00;0.00;;;;;;;20.20;100.00;99602.78;7400637;19;20410;-95
2022/08/02 00:11:31;;;;;;;0.20;0.10;;;;;;;20.15;100.00;99597.22;7398249;19;20018;-88
2022/08/02 00:13:57;;;;;;;0.52;0.20;;;;;;;20.12;100.00;99609.63;7397785;19;20036;-88
2022/08/02 00:16:24;;;;;;;0.20;0.13;;;;;;;20.10;100.00;99600.91;7398983;19;20043;-87
2022/08/02 00:18:50;;;;;;;0.10;0.00;;;;;;;20.15;100.00;99597.22;7398313;19;20019;-87
2022/08/02 00:21:17;;;;;;;0.10;0.00;;;;;;;20.10;100.00;99595.25;7396569;19;20021;-86
2022/08/02 00:23:43;;;;;;;0.95;0.35;;;;;;;20.14;100.00;99592.88;7398278;19;20013;-87
2022/08/02 00:26:09;;;;;;;0.32;0.10;;;;;;;20.11;100.00;99591.13;7397772;19;20022;-87
2022/08/02 00:28:35;;;;;;;0.47;0.20;;;;;;;20.09;100.00;99588.09;7397614;19;20017;-87
2022/08/02 00:31:01;;;;;;;0.63;0.10;;;;;;;20.11;100.00;99589.06;7398814;19;20349;-86
2022/08/02 00:33:28;;;;;;;0.40;0.10;;;;;;;20.07;100.00;99579.41;7398734;19;20081;-89
2022/08/02 00:35:54;;;;;;;0.10;0.05;;;;;;;20.12;100.00;99575.72;7399973;19;20182;-87
2022/08/02 00:38:20;;;;;;;0.50;0.20;;;;;;;20.08;100.00;99576.03;7396494;19;20014;-87
2022/08/02 00:40:48;;;;;;;0.75;0.00;;;;;;;20.15;100.00;99580.25;7397503;19;20014;-87
2022/08/02 00:43:14;;;;;;;0.20;0.05;;;;;;;20.16;100.00;99581.78;7398995;19;20089;-87
2022/08/02 00:45:41;;;;;;;1.27;0.20;;;;;;;20.19;100.00;99569.34;7398647;19;20014;-87
2022/08/02 00:48:09;;;;;;;0.20;0.10;;;;;;;20.19;100.00;99569.34;7397217;19;20014;-87
2022/08/02 00:50:36;;;;;;;1.88;0.10;;;;;;;20.16;100.00;99570.47;7397581;19;20011;-86
2022/08/02 00:53:02;;;;;;;0.82;0.20;;;;;;;20.16;100.00;99573.28;7398147;19;20015;-87
2022/08/02 00:55:29;;;;;;;0.22;0.10;;;;;;;20.20;100.00;99560.38;7395977;19;20011;-87
2022/08/02 00:57:55;;;;;;;0.00;0.00;;;;;;;20.22;100.00;99559.81;7399226;19;20022;-88
2022/08/02 01:00:22;;;;;;;0.22;0.13;;;;;;;20.23;100.00;99562.09;7397567;19;20113;-87
2022/08/02 01:02:49;;;;;;;1.25;0.20;;;;;;;20.18;100.00;99562.19;7397838;19;20010;-87
2022/08/02 01:05:15;;;;;;;0.20;0.17;;;;;;;20.08;100.00;99556.22;7396745;19;20015;-87
2022/08/02 01:07:42;;;;;;;0.75;0.00;;;;;;;20.18;100.00;99557.28;7400376;19;20082;-88
2022/08/02 01:10:08;;;;;;;0.45;0.20;;;;;;;20.16;100.00;99570.47;7397222;19;20018;-87
2022/08/02 01:12:35;;;;;;;0.63;0.10;;;;;;;20.21;100.00;99549.78;7396481;19;20010;-88
2022/08/02 01:15:06;;;;;;;0.45;0.10;;;;;;;20.27;100.00;99556.09;7396143;19;20018;-88
2022/08/02 01:17:42;;;;;;;0.63;0.22;;;;;;;20.29;100.00;99547.81;7398643;19;20042;-88
2022/08/02 01:20:30;;;;;;;0.32;0.10;;;;;;;20.32;100.00;99541.06;7397213;19;20497;-88
2022/08/02 01:23:23;;;;;;;5.15;0.35;;;;;;;20.33;100.00;99539.75;7396887;19;20469;-88
2022/08/02 01:26:07;;;;;;;0.10;0.00;;;;;;;20.30;100.00;99535.94;7395914;19;20014;-88
2022/08/02 01:28:39;;;;;;;0.25;0.10;;;;;;;20.38;100.00;99533.19;7395809;19;20022;-87
2022/08/02 01:31:21;;;;;;;0.20;0.10;;;;;;;20.40;100.00;99533.38;7396147;19;20070;-88
2022/08/02 01:34:11;;;;;;;1.50;0.10;;;;;;;20.34;100.00;99529.94;7397152;19;20670;-87
2022/08/02 01:36:43;;;;;;;0.20;0.10;;;;;;;20.32;100.00;99526.91;7396935;19;20015;-88
2022/08/02 01:39:13;;;;;;;0.10;0.00;;;;;;;20.37;100.00;99514.72;7394896;19;20014;-87
2022/08/02 01:41:41;;;;;;;0.90;0.20;;;;;;;20.36;100.00;99513.19;7396448;19;20011;-87
2022/08/02 01:44:10;;;;;;;0.63;0.20;;;;;;;20.32;100.00;99521.25;7396797;19;20074;-87
2022/08/02 01:46:39;;;;;;;0.20;0.03;;;;;;;20.33;100.00;99529.22;7397346;19;20018;-87
2022/08/02 01:49:11;;;;;;;0.40;0.10;;;;;;;20.37;100.00;99520.38;7393901;19;20015;-87
2022/08/02 01:54:29;;;;;;;0.98;0.25;;;;;;;20.40;100.00;99517.19;7395199;19;20019;-86
2022/08/02 01:56:57;;;;;;;1.17;0.25;;;;;;;20.43;100.00;99520.97;7394351;19;20022;-86
2022/08/02 01:59:25;;;;;;;0.20;0.10;;;;;;;20.42;100.00;99501.75;7393485;19;20084;-86
2022/08/02 02:01:54;;;;;;;0.88;0.28;;;;;;;20.40;100.00;99510.75;7394024;19;20015;-86
2022/08/02 02:04:21;;;;;;;2.72;0.68;;;;;;;20.41;100.00;99500.97;7396157;19;20014;-86
2022/08/02 02:06:49;;;;;;;0.45;0.45;;;;;;;20.40;100.00;99499.44;7395266;19;20018;-86
2022/08/02 02:09:17;;;;;;;1.20;0.17;;;;;;;20.42;100.00;99491.19;7395246;19;20022;-85
2022/08/02 02:11:46;;;;;;;0.10;0.00;;;;;;;20.40;100.00;99488.91;7392209;19;20018;-86
2022/08/02 02:14:15;;;;;;;1.52;0.30;;;;;;;20.37;100.00;99492.09;7391323;19;20469;-87
2022/08/02 02:16:45;;;;;;;3.70;0.50;;;;;;;20.39;100.00;99500.78;7394286;19;20018;-86
2022/08/02 02:19:12;;;;;;;2.80;0.20;;;;;;;20.39;100.00;99489.47;7393894;19;20469;-87
2022/08/02 02:21:39;;;;;;;1.55;0.40;;;;;;;20.40;100.00;99488.13;7395745;19;20082;-86
2022/08/02 02:24:05;;;;;;;0.40;0.30;;;;;;;20.41;100.00;99492.50;7394576;19;20088;-86
2022/08/02 02:26:34;;;;;;;0.68;0.30;;;;;;;20.40;100.00;99497.38;7396317;19;20052;-86
2022/08/02 02:29:03;;;;;;;0.17;0.10;;;;;;;20.46;100.00;99485.94;7393356;19;20014;-87
2022/08/02 02:31:35;;;;;;;0.65;0.20;;;;;;;20.39;100.00;99475.31;7394301;19;20011;-87
2022/08/02 02:34:09;;;;;;;3.45;0.17;;;;;;;20.36;100.00;99473.59;7393154;19;20047;-86
2022/08/02 02:36:38;;;;;;;0.80;0.25;;;;;;;20.40;100.00;99465.50;7395201;19;20018;-87
2022/08/02 02:39:06;;;;;;;1.10;0.28;;;;;;;20.51;100.00;99459.56;7393941;19;20022;-88
2022/08/02 02:41:32;;;;;;;1.45;0.38;;;;;;;20.57;100.00;99456.59;7402652;19;20043;-87
2022/08/02 02:44:01;;;;;;;0.20;0.10;;;;;;;20.64;100.00;99455.91;7402726;19;20459;-87
2022/08/02 02:46:30;;;;;;;0.20;0.10;;;;;;;20.60;100.00;99439.25;7400956;19;20596;-87
2022/08/02 02:48:57;;;;;;;2.28;0.32;;;;;;;20.64;100.00;99444.59;7401323;19;20370;-87
2022/08/02 02:51:24;;;;;;;6.60;0.47;;;;;;;20.67;100.00;99447.06;7402129;19;20014;-87
2022/08/02 02:53:52;;;;;;;5.63;0.55;;;;;;;20.70;100.00;99448.78;7399488;19;20011;-88
2022/08/02 02:56:19;;;;;;;2.83;0.30;;;;;;;20.95;100.00;99447.06;7402387;19;20449;-87
2022/08/02 02:58:46;;;;;;;1.45;0.17;;;;;;;20.77;100.00;99441.66;7400860;19;20489;-87
2022/08/02 03:01:31;;;;;;;2.95;0.40;;;;;;;20.79;100.00;99442.59;7406309;19;20019;-87
2022/08/02 03:04:05;;;;;;;0.43;0.30;;;;;;;20.69;100.00;99435.16;7394099;19;20037;-87
2022/08/02 03:06:34;;;;;;;4.72;0.75;;;;;;;20.63;100.00;99443.06;7394460;19;20022;-87
2022/08/02 03:09:01;;;;;;;1.13;0.28;;;;;;;20.66;100.00;99442.69;7400087;19;20018;-87
2022/08/02 03:11:28;;;;;;;1.08;0.15;;;;;;;20.64;100.00;99450.97;7402306;19;20011;-88
2022/08/02 03:13:59;;;;;;;2.65;0.22;;;;;;;20.66;100.00;99448.34;7399047;19;20090;-87
2022/08/02 03:16:27;;;;;;;0.55;0.00;;;;;;;20.70;100.00;99439.53;7400481;19;20078;-87
2022/08/02 03:18:54;;;;;;;0.25;0.10;;;;;;;20.69;100.00;99443.66;7400060;19;20022;-87
2022/08/02 03:21:21;;;;;;;0.30;0.15;;;;;;;20.66;100.00;99442.69;7399724;19;20011;-87
2022/08/02 03:23:48;;;;;;;4.85;0.55;;;;;;;20.67;100.00;99427.25;7400559;19;20019;-88
2022/08/02 03:26:15;;;;;;;2.40;0.50;;;;;;;20.68;100.00;99440.06;7401449;19;20022;-88
2022/08/02 03:28:42;;;;;;;0.10;0.00;;;;;;;20.70;100.00;99443.13;7399854;19;20011;-87
2022/08/02 03:31:09;;;;;;;0.75;0.20;;;;;;;20.69;100.00;99447.25;7399317;19;20018;-87
2022/08/02 03:33:36;;;;;;;1.08;0.52;;;;;;;20.71;100.00;99436.13;7398642;19;20007;-90
2022/08/02 03:36:09;;;;;;;0.60;0.08;;;;;;;20.70;100.00;99440.28;7400119;19;20014;-89
2022/08/02 03:38:37;;;;;;;0.75;0.20;;;;;;;20.69;100.00;99446.50;7401695;19;20022;-89
2022/08/02 03:41:06;;;;;;;0.55;0.13;;;;;;;20.63;100.00;99437.41;7401670;19;20465;-90
2022/08/02 03:43:32;;;;;;;0.50;0.10;;;;;;;20.60;100.00;99433.59;7398306;19;20010;-89
2022/08/02 03:46:01;;;;;;;0.90;0.22;;;;;;;20.62;100.00;99435.91;7400322;19;20018;-89
2022/08/02 03:48:29;;;;;;;0.10;0.00;;;;;;;20.62;100.00;99430.97;7400785;19;20014;-89
2022/08/02 03:50:56;;;;;;;1.25;0.30;;;;;;;20.63;100.00;99421.19;7399016;19;20011;-90
2022/08/02 03:53:23;;;;;;;0.80;0.25;;;;;;;20.61;100.00;99417.41;7401227;19;20014;-91
2022/08/02 03:55:50;;;;;;;4.20;0.25;;;;;;;20.59;100.00;99415.13;7399725;19;20014;-90
2022/08/02 03:58:22;;;;;;;0.10;0.00;;;;;;;20.56;100.00;99424.72;7400255;19;20355;-89
2022/08/02 04:00:48;;;;;;;0.40;0.30;;;;;;;20.54;100.00;99424.50;7398645;19;20022;-89
2022/08/02 04:03:15;;;;;;;0.10;0.03;;;;;;;20.50;100.00;99412.78;7398964;19;20014;-88
2022/08/02 04:05:41;;;;;;;1.50;0.20;;;;;;;20.48;100.00;99415.41;7400481;19;20024;-89
2022/08/02 04:08:07;;;;;;;0.20;0.05;;;;;;;20.52;100.00;99417.88;7400452;19;20011;-89
2022/08/02 04:13:20;;;;;;;3.13;0.20;;;;;;;20.50;100.00;99423.34;7400279;19;20082;-88
2022/08/02 04:15:51;;;;;;;0.10;0.00;;;;;;;20.45;100.00;99427.84;7399300;19;20120;-88
2022/08/02 04:18:21;;;;;;;0.77;0.10;;;;;;;20.47;100.00;99425.22;7397468;19;20022;-89
2022/08/02 04:20:50;;;;;;;0.43;0.25;;;;;;;20.43;100.00;99416.31;7400098;19;20042;-88
2022/08/02 04:23:16;;;;;;;1.80;0.40;;;;;;;20.48;100.00;99401.28;7400576;19;20148;-88
2022/08/02 04:25:44;;;;;;;0.15;0.00;;;;;;;20.50;100.00;99407.13;7398822;19;20015;-87
2022/08/02 04:28:12;;;;;;;0.25;0.00;;;;;;;20.53;100.00;99408.84;7399380;19;20830;-88
2022/08/02 04:30:38;;;;;;;0.38;0.10;;;;;;;20.55;100.00;99391.31;7399153;19;20058;-87
2022/08/02 04:33:05;;;;;;;0.30;0.10;;;;;;;20.54;100.00;99401.88;7397574;19;20078;-84
2022/08/02 04:35:32;;;;;;;0.10;0.00;;;;;;;20.54;100.00;99401.13;7393210;19;20378;-84
2022/08/02 04:37:58;;;;;;;0.17;0.17;;;;;;;20.51;100.00;99391.66;7399202;19;20039;-84
2022/08/02 04:40:25;;;;;;;0.28;0.10;;;;;;;20.53;100.00;99391.88;7394887;19;20045;-83
2022/08/02 04:42:51;;;;;;;2.10;0.15;;;;;;;20.56;100.00;99387.94;7394294;19;20015;-83
2022/08/02 04:45:18;;;;;;;0.20;0.20;;;;;;;20.62;100.00;99391.38;7393354;19;20489;-84
2022/08/02 04:47:44;;;;;;;0.00;0.00;;;;;;;20.68;100.00;99388.41;7397331;19;20018;-84
2022/08/02 04:50:11;;;;;;;1.88;0.25;;;;;;;20.69;100.00;99384.22;7393359;19;20084;-83
2022/08/02 04:52:37;;;;;;;7.03;0.20;;;;;;;20.69;100.00;99390.66;7395354;19;20345;-84
2022/08/02 04:55:03;;;;;;;0.75;0.20;;;;;;;20.65;100.00;99389.50;7392205;19;20036;-84
2022/08/02 05:00:14;;;;;;;0.20;0.20;;;;;;;20.68;100.00;99396.88;7398059;19;20014;-85
2022/08/02 05:02:40;;;;;;;0.52;0.15;;;;;;;20.60;100.00;99399.66;7394411;19;20658;-85
2022/08/02 05:05:07;;;;;;;0.10;0.10;;;;;;;20.64;100.00;99400.06;7396017;19;20078;-84
2022/08/02 05:07:33;;;;;;;0.40;0.10;;;;;;;20.65;100.00;99401.59;7395628;19;20018;-84
2022/08/02 05:09:59;;;;;;;0.00;0.00;;;;;;;20.67;100.00;99393.28;7396982;19;20511;-86
2022/08/02 05:12:25;;;;;;;0.63;0.30;;;;;;;20.65;100.00;99398.75;7396050;19;20022;-86
2022/08/02 05:14:51;;;;;;;0.03;0.00;;;;;;;20.70;100.00;99386.53;7392473;19;20405;-86
2022/08/02 05:17:17;;;;;;;0.00;0.00;;;;;;;20.71;100.00;99399.34;7396967;19;20015;-85
2022/08/02 05:19:43;;;;;;;0.10;0.10;;;;;;;20.73;100.00;99395.94;7396425;19;20389;-85
2022/08/02 05:22:09;;;;;;;0.55;0.20;;;;;;;20.72;100.00;99394.44;7393024;19;20058;-83
2022/08/02 05:24:36;;;;;;;0.00;0.00;;;;;;;20.76;100.00;99395.63;7393366;19;20240;-85
2022/08/02 05:27:02;;;;;;;0.10;0.00;;;;;;;20.72;100.00;99389.56;7397409;19;20021;-86
2022/08/02 05:29:28;;;;;;;0.93;0.15;;;;;;;20.78;100.00;99395.03;7395311;19;20010;-85
2022/08/02 05:31:54;;;;;;;0.00;0.00;;;;;;;20.80;100.00;99390.34;7394314;19;20011;-84
2022/08/02 05:34:20;;;;;;;0.00;0.00;;;;;;;20.83;100.00;99391.31;7393506;19;20014;-86
2022/08/02 05:36:46;;;;;;;0.00;0.00;;;;;;;20.84;100.00;99390.75;7396158;19;20117;-86
2022/08/02 05:39:12;;;;;;;0.00;0.00;;;;;;;20.84;100.00;99387.91;7394365;19;20509;-85
2022/08/02 05:41:39;;;;;;;0.35;0.20;;;;;;;20.89;100.00;99389.84;7395011;19;20019;-92
2022/08/02 05:44:05;;;;;;;0.00;0.00;;;;;;;20.90;100.00;99394.16;7396279;19;20021;-90
2022/08/02 05:46:31;;;;;;;0.00;0.00;;;;;;;20.94;100.00;99394.56;7398054;19;20022;-90
2022/08/02 05:48:57;;;;;;;0.10;0.10;;;;;;;20.95;100.00;99393.25;7397209;19;20015;-90
2022/08/02 05:51:41;;;;;;;0.00;0.00;;;;;;;20.94;100.00;99394.56;7396940;19;20010;-90
2022/08/02 05:54:30;;;;;;;0.25;0.20;;;;;;;20.91;100.00;99392.88;7394873;19;20037;-90
2022/08/02 05:57:03;;;;;;;0.00;0.00;;;;;;;20.97;100.00;99401.94;7398298;19;20031;-90
2022/08/02 05:59:46;;;;;;;0.00;0.00;;;;;;;21.03;100.00;99411.06;7397213;19;20018;-88
2022/08/02 06:02:27;;;;;;;4.22;0.40;;;;;;;21.07;100.00;99402.97;7396749;19;20081;-88
2022/08/02 06:05:10;;;;;;;0.10;0.10;;;;;;;21.04;100.00;99409.00;7388528;19;20018;-89
2022/08/02 06:07:38;;;;;;;0.10;0.00;;;;;;;21.03;100.00;99413.91;7392968;19;20062;-89
2022/08/02 06:10:06;;;;;;;2.22;0.60;;;;;;;21.02;100.00;99412.38;7394457;19;20493;-91
2022/08/02 06:12:40;;;;;;;0.10;0.10;;;;;;;21.05;100.00;99416.19;7395758;19;20018;-90
2022/08/02 06:15:06;;;;;;;0.93;0.15;;;;;;;21.08;100.00;99413.00;7392425;19;20014;-90
2022/08/02 06:17:33;;;;;;;1.38;0.20;;;;;;;21.03;100.00;99413.91;7398032;19;20018;-89
2022/08/02 06:20:00;;;;;;;0.05;0.00;;;;;;;21.02;100.00;99412.38;7395021;19;20465;-89
2022/08/02 06:22:29;;;;;;;0.03;0.00;;;;;;;21.04;100.00;99409.75;7394961;19;20026;-89
2022/08/02 06:24:56;;;;;;;0.60;0.38;;;;;;;21.00;100.00;99415.00;7395835;19;20319;-89
2022/08/02 06:27:26;;;;;;;0.13;0.00;;;;;;;20.97;100.00;99416.09;7396953;19;20011;-89
2022/08/02 06:29:55;;;;;;;2.20;0.10;;;;;;;20.96;100.00;99413.84;7393594;19;20014;-89
2022/08/02 06:32:21;;;;;;;0.00;0.00;;;;;;;20.94;100.00;99422.88;7394252;19;20014;-89
2022/08/02 06:34:47;;;;;;;4.47;0.10;;;;;;;20.94;100.00;99411.56;7392982;19;20027;-89
2022/08/02 06:37:53;;;;;;;1.75;0.22;;;;;;;20.97;100.00;99418.19;7395627;19;20014;-89
2022/08/02 06:40:29;;;;;;;0.10;0.10;;;;;;;20.99;100.00;99413.47;7394168;19;20074;-90
2022/08/02 06:43:22;;;;;;;3.50;0.43;;;;;;;21.01;100.00;99410.84;7394776;19;20045;-89
2022/08/02 06:45:48;;;;;;;0.38;0.10;;;;;;;21.05;100.00;99413.34;7394733;19;20028;-89
2022/08/02 06:48:14;;;;;;;0.40;0.10;;;;;;;21.07;100.00;99407.88;7393350;19;20022;-88
2022/08/02 06:50:42;;;;;;;0.38;0.10;;;;;;;21.09;100.00;99410.91;7393519;19;20030;-89
2022/08/02 06:53:10;;;;;;;1.33;0.45;;;;;;;21.06;100.00;99418.44;7394003;19;20457;-89
2022/08/02 06:55:36;;;;;;;0.10;0.00;;;;;;;21.10;100.00;99429.41;7398191;19;20011;-89
2022/08/02 06:58:02;;;;;;;1.00;0.52;;;;;;;21.10;100.00;99421.69;7391219;19;20353;-89
2022/08/02 07:00:29;;;;;;;0.10;0.10;;;;;;;21.09;100.00;99422.25;7394583;19;20010;-89
2022/08/02 07:02:55;;;;;;;0.00;0.00;;;;;;;21.12;100.00;99419.03;7394109;19;20026;-88
2022/08/02 07:05:22;;;;;;;1.17;0.00;;;;;;;21.14;100.00;99413.56;7392496;19;20011;-90
2022/08/02 07:07:49;;;;;;;0.00;0.00;;;;;;;21.23;100.00;99414.34;7394148;19;20081;-90
2022/08/02 07:10:15;;;;;;;0.00;0.00;;;;;;;21.25;100.00;99417.38;7393208;19;20118;-90
2022/08/02 07:12:41;;;;;;;0.50;0.13;;;;;;;21.23;100.00;99417.97;7393637;19;20349;-90
2022/08/02 07:15:08;;;;;;;0.00;0.00;;;;;;;21.29;100.00;99409.31;7391341;19;20022;-89
2022/08/02 07:17:35;;;;;;;3.70;0.17;;;;;;;21.35;100.00;99412.72;7396252;19;20025;-89
2022/08/02 07:20:03;;;;;;;0.22;0.22;;;;;;;21.43;100.00;99416.34;7394403;19;20021;-89
2022/08/02 07:22:29;;;;;;;2.95;0.10;;;;;;;21.53;100.00;99414.47;7392019;19;20047;-89
2022/08/02 07:24:58;;;;;;;1.23;0.00;;;;;;;21.66;100.00;99420.00;7391366;19;20010;-89
2022/08/02 07:27:25;;;;;;;1.88;0.20;;;;;;;21.78;100.00;99418.34;7401533;19;20018;-88
2022/08/02 07:29:51;;;;;;;0.38;0.20;;;;;;;21.81;100.00;99423.63;7401015;19;20018;-88
2022/08/02 07:32:20;;;;;;;1.50;0.05;;;;;;;21.86;100.00;99422.72;7401448;19;20089;-89
2022/08/02 07:34:46;;;;;;;0.10;0.10;;;;;;;21.86;100.00;99416.28;7398982;19;20038;-89
2022/08/02 07:37:12;;;;;;;1.90;0.10;;;;;;;21.82;100.00;99413.84;7400269;19;20095;-89
2022/08/02 07:39:39;;;;;;;0.00;0.00;;;;;;;21.80;100.00;99418.53;7398776;19;20023;-88
2022/08/02 07:42:05;;;;;;;0.55;0.28;;;;;;;21.78;100.00;99413.44;7396705;19;20018;-88
2022/08/02 07:44:33;;;;;;;0.73;0.10;;;;;;;21.79;100.00;99419.81;7397100;19;20010;-87
2022/08/02 07:47:00;;;;;;;0.00;0.00;;;;;;;21.76;100.00;99420.97;7400492;19;20010;-88
2022/08/02 07:49:27;;;;;;;0.10;0.05;;;;;;;21.67;100.00;99422.28;7397804;19;20035;-87
2022/08/02 07:51:53;;;;;;;1.85;0.20;;;;;;;21.61;100.00;99429.44;7400637;19;20006;-88
2022/08/02 07:54:20;;;;;;;0.10;0.00;;;;;;;21.59;100.00;99426.41;7400815;19;20014;-88
2022/08/02 07:56:46;;;;;;;0.15;0.08;;;;;;;21.59;100.00;99429.25;7399058;19;20070;-88
2022/08/02 07:59:13;;;;;;;2.85;0.30;;;;;;;21.61;100.00;99427.34;7398590;19;20021;-88
2022/08/02 08:01:40;;;;;;;0.10;0.10;;;;;;;21.64;100.00;99416.97;7398734;19;20018;-88
2022/08/02 08:04:07;;;;;;;3.08;0.40;;;;;;;21.70;100.00;99406.22;7400415;19;20464;-88
2022/08/02 08:06:33;;;;;;;0.20;0.10;;;;;;;21.89;100.00;99409.50;7397384;19;20031;-88
2022/08/02 08:08:59;;;;;;;0.10;0.10;;;;;;;22.05;100.00;99404.59;7401520;19;20123;-88
2022/08/02 08:11:25;;;;;;;0.47;0.00;;;;;;;22.15;100.00;99412.00;7397777;19;20445;-88
2022/08/02 08:13:52;;;;;;;2.38;0.20;;;;;;;22.23;100.00;99412.75;7398425;19;20015;-88
2022/08/02 08:16:18;;;;;;;1.25;0.25;;;;;;;22.27;100.00;99410.28;7397898;19;20348;-88
2022/08/02 08:18:44;;;;;;;0.10;0.00;;;;;;;22.41;100.00;99417.28;7398286;19;20018;-87
2022/08/02 08:21:10;;;;;;;3.00;0.45;;;;;;;22.44;100.00;99427.47;7400627;19;20667;-85
2022/08/02 08:23:36;;;;;;;0.85;0.00;;;;;;;22.43;100.00;99414.63;7398583;19;20015;-88
2022/08/02 08:26:04;;;;;;;5.82;0.43;;;;;;;22.43;100.00;99417.47;7399646;19;20411;-88
2022/08/02 08:28:30;;;;;;;0.10;0.00;;;;;;;22.31;100.00;99424.06;7398156;19;20054;-87
2022/08/02 08:30:56;;;;;;;1.80;0.40;;;;;;;22.33;100.00;99418.59;7396431;19;20018;-88
2022/08/02 08:33:22;;;;;;;0.00;0.00;;;;;;;22.48;100.00;99422.19;7396198;19;20502;-88
2022/08/02 08:35:48;;;;;;;0.52;0.10;;;;;;;22.74;100.00;99408.94;7395865;19;20031;-87
2022/08/02 08:38:15;;;;;;;7.13;0.50;;;;;;;22.91;100.00;99417.63;7395138;19;20023;-86
2022/08/02 08:40:41;;;;;;;1.17;0.10;;;;;;;23.11;100.00;99413.75;7397967;19;20070;-86
2022/08/02 08:43:07;;;;;;;3.13;0.30;;;;;;;23.33;100.00;99412.94;7396331;19;20010;-87
2022/08/02 08:45:34;;;;;;;2.63;0.10;;;;;;;23.51;100.00;99408.88;7396468;19;20017;-87
2022/08/02 08:48:09;;;;;;;0.22;0.00;;;;;;;23.62;100.00;99411.28;7397913;19;20471;-87
2022/08/02 08:50:41;;;;;;;0.45;0.10;;;;;;;23.57;100.00;99403.72;7395428;19;20010;-84
2022/08/02 08:53:08;;;;;;;0.55;0.10;;;;;;;23.44;100.00;99412.50;7396596;19;20035;-86
2022/08/02 08:55:36;;;;;;;0.40;0.20;;;;;;;23.47;100.00;99414.22;7393587;19;20036;-86
2022/08/02 08:58:04;;;;;;;0.68;0.20;;;;;;;23.49;100.00;99403.03;7392901;19;20078;-87
2022/08/02 09:00:34;;;;;;;0.20;0.00;;;;;;;23.61;100.00;99398.41;7398491;19;20017;-86
2022/08/02 09:03:05;;;;;;;5.55;0.30;;;;;;;23.67;100.00;99389.66;7392603;19;20025;-85
2022/08/02 09:05:34;;;;;;;0.38;0.10;;;;;;;23.73;100.00;99387.34;7389205;19;20022;-86
2022/08/02 09:08:00;;;;;;;2.72;0.10;;;;;;;23.86;100.00;99373.63;7392403;19;20010;-86
2022/08/02 09:10:43;;;;;;;2.97;0.68;;;;;;;23.95;100.00;99375.78;7395061;19;20014;-95
2022/08/02 09:13:21;;;;;;;0.10;0.00;;;;;;;23.98;100.00;99388.09;7390429;19;20094;-85
2022/08/02 09:15:56;;;;;;;0.60;0.08;;;;;;;23.95;100.00;99384.34;7392271;19;20014;-85
2022/08/02 09:18:33;;;;;;;0.50;0.20;;;;;;;24.02;100.00;99392.06;7395140;19;20006;-85
2022/08/02 09:21:02;;;;;;;1.25;0.73;;;;;;;24.02;100.00;99380.69;7395878;19;20074;-86
2022/08/02 09:23:46;;;;;;;0.30;0.00;;;;;;;24.00;100.00;99394.72;7393110;19;20049;-84
2022/08/02 09:26:18;;;;;;;0.28;0.10;;;;;;;23.87;100.00;99397.88;7392931;19;20011;-85
2022/08/02 09:28:48;;;;;;;0.30;0.10;;;;;;;23.80;100.00;99392.97;7394652;19;20010;-87
2022/08/02 09:31:19;;;;;;;4.35;0.38;;;;;;;23.78;100.00;99383.53;7390930;19;20033;-85
2022/08/02 09:33:56;;;;;;;0.20;0.00;;;;;;;23.87;100.00;99391.41;7389584;19;20019;-85
2022/08/02 09:36:23;;;;;;;0.25;0.00;;;;;;;23.87;100.00;99374.34;7390516;19;20017;-84
2022/08/02 09:38:54;;;;;;;0.20;0.10;;;;;;;24.07;100.00;99371.19;7393131;19;20507;-84
2022/08/02 09:41:26;;;;;;;0.60;0.08;;;;;;;24.22;100.00;99370.31;7391378;19;20052;-86
2022/08/02 09:43:54;;;;;;;1.55;0.30;;;;;;;24.36;100.00;99373.63;7390220;19;20019;-83
2022/08/02 09:46:25;;;;;;;5.93;0.10;;;;;;;24.58;100.00;99378.34;7386817;19;20416;-84
2022/08/02 09:48:54;;;;;;;0.35;0.10;;;;;;;24.96;100.00;99390.09;7387120;19;20377;-84
2022/08/02 09:51:24;;;;;;;0.10;0.10;;;;;;;25.11;100.00;99404.19;7387782;19;20056;-84
2022/08/02 09:53:56;;;;;;;0.00;0.00;;;;;;;24.93;100.00;99405.50;7387365;19;20019;-83
2022/08/02 09:56:26;;;;;;;2.15;0.10;;;;;;;24.78;100.00;99402.81;7387327;19;20104;-83
2022/08/02 09:58:53;;;;;;;;;;;;;;;24.62;100.00;99399.34;7386129;19;20038;-85
2022/08/02 10:01:29;;;;;;;0.10;0.00;;;;;;;24.48;100.00;99403.09;7382813;19;19926;-84
2022/08/02 10:03:58;;;;;;;0.35;0.00;;;;;;;24.16;100.00;99391.81;7387766;19;20025;-84
2022/08/02 10:06:24;;;;;;;0.65;0.00;;;;;;;23.79;100.00;99408.53;7385932;19;20571;-85
2022/08/02 10:08:54;;;;;;;4.18;0.10;;;;;;;23.57;100.00;99417.19;7387322;19;20030;-84
2022/08/02 10:11:22;;;;;;;0.10;0.00;;;;;;;23.33;100.00;99413.72;7385407;19;20010;-83
2022/08/02 10:13:49;;;;;;;0.10;0.00;;;;;;;23.21;100.00;99417.53;7383838;19;20018;-84
2022/08/02 10:16:18;;;;;;;4.18;1.38;;;;;;;23.14;100.00;99415.47;7385976;19;20018;-86
2022/08/02 10:18:44;;;;;;;0.10;0.10;;;;;;;23.11;100.00;99413.75;7384473;19;20519;-84
2022/08/02 10:21:18;;;;;;;0.45;0.08;;;;;;;23.14;100.00;99412.63;7383865;19;20377;-83
2022/08/02 10:23:48;;;;;;;0.22;0.10;;;;;;;23.32;100.00;99417.84;7385946;19;20347;-83
2022/08/02 10:26:19;;;;;;;0.08;0.00;;;;;;;23.53;100.00;99422.53;7386408;19;20141;-82
2022/08/02 10:28:48;;;;;;;1.70;0.20;;;;;;;23.67;100.00;99423.78;7384221;19;20023;-85
2022/08/02 10:31:19;;;;;;;0.30;0.20;;;;;;;23.61;100.00;99426.84;7386852;19;20015;-86
2022/08/02 10:33:48;;;;;;;0.98;0.00;;;;;;;23.62;100.00;99431.19;7386439;19;20029;-88
2022/08/02 10:36:15;;;;;;;0.45;0.10;;;;;;;23.62;100.00;99448.25;7385575;19;20026;-86
2022/08/02 10:38:43;;;;;;;0.10;0.00;;;;;;;23.51;100.00;99468.59;7387262;19;20120;-82
2022/08/02 10:41:10;;;;;;;0.10;0.00;;;;;;;23.37;100.00;99458.78;7383606;19;20026;-80
2022/08/02 10:43:42;;;;;;;0.10;0.00;;;;;;;23.41;100.00;99453.47;7385670;19;20022;-80
2022/08/02 10:46:44;;;;;;;0.47;0.03;;;;;;;23.43;100.00;99445.13;7384650;19;20014;-81
2022/08/02 10:49:14;;;;;;;0.00;0.00;;;;;;;23.52;100.00;99450.19;7381685;19;20015;-81
2022/08/02 10:51:59;;;;;;;0.52;0.10;;;;;;;23.57;100.00;99451.31;7383239;19;20031;-81
2022/08/02 10:54:40;;;;;;;0.10;0.00;;;;;;;23.57;100.00;99454.91;7383359;19;20018;-82
2022/08/02 10:57:19;;;;;;;0.20;0.10;;;;;;;23.65;100.00;99449.94;7386879;19;20027;-82
2022/08/02 10:59:47;;;;;;;1.50;0.20;;;;;;;23.69;100.00;99455.97;7385345;19;20047;-82
2022/08/02 11:02:32;;;;;;;0.10;0.00;;;;;;;23.74;100.00;99446.47;7391460;19;20112;-82
2022/08/02 11:04:58;;;;;;;0.10;0.00;;;;;;;23.75;100.00;99447.25;7391672;19;20464;-82
2022/08/02 11:07:44;;;;;;;0.08;0.08;;;;;;;23.83;100.00;99443.03;7393118;19;20610;-83
2022/08/02 11:10:29;;;;;;;0.25;0.00;;;;;;;23.88;100.00;99444.91;7391363;19;20014;-82
2022/08/02 11:13:04;;;;;;;0.08;0.08;;;;;;;23.82;100.00;99450.03;7392160;19;20018;-83
2022/08/02 11:15:47;;;;;;;0.00;0.00;;;;;;;23.80;100.00;99441.31;7386652;19;20006;-82
2022/08/02 11:18:14;;;;;;;0.47;0.00;;;;;;;23.77;100.00;99433.97;7390712;19;20029;-84
2022/08/02 11:20:40;;;;;;;0.00;0.00;;;;;;;23.73;100.00;99444.97;7392801;19;20019;-84
2022/08/02 11:23:35;;;;;;;0.30;0.10;;;;;;;23.83;100.00;99417.41;7388629;19;20361;-84
2022/08/02 11:26:29;;;;;;;0.47;0.10;;;;;;;23.83;100.00;99414.56;7392028;19;20018;-83
2022/08/02 11:28:57;;;;;;;3.42;0.10;;;;;;;24.05;100.00;99408.00;7392003;19;20022;-85
2022/08/02 11:31:23;;;;;;;0.10;0.00;;;;;;;24.38;100.00;99413.63;7391354;19;20022;-85
2022/08/02 11:33:51;;;;;;;0.00;0.00;;;;;;;24.60;100.00;99407.00;7392860;19;20336;-86
2022/08/02 11:36:17;;;;;;;0.10;0.00;;;;;;;24.90;100.00;99409.56;7394088;19;20023;-85
2022/08/02 11:38:44;;;;;;;3.63;0.80;;;;;;;25.07;100.00;99423.03;7392534;19;20018;-85
2022/08/02 11:41:21;;;;;;;0.03;0.00;;;;;;;24.98;100.00;99424.47;7391406;19;20344;-86
2022/08/02 11:43:54;;;;;;;0.17;0.10;;;;;;;25.02;100.00;99433.34;7391821;19;20501;-85